Charlton, New York
Current Conditions -  °F | °C
As of 4:51 AM on Thursday 27 Nov 2014 (Local Time) from KALB Reporting Station
Light Snow Light Snow  
Wind Chill: 23°   Ceiling: 2400
Heat Index: 30°   Visibility: 9mi
Dew Point: 26°   Wind: 7mph
Humidity: 85%   Direction: 320°NW
Pressure: 29.95"   Gusts: NA
Location:  42.9234°N, 73.8412°W
Report Text: KALB 270951Z 32006KT 9SM -SN FEW008 OVC024 M01/M03 A2995 RMK AO2 SLP144 PCPN VRY LGT P0000 T10111033
Loading
Personal Weather Stations






























Interactive Weather Map New forecast layout! Learn more

10-Day Weather Forecast

Advertisements
Track Severe Weather on mobile